<?xml version="1.0" encoding="UTF-8" standalone="no" ?>
<gpx xmlns="http://www.topografix.com/GPX/1/1" xmlns:xsi="http://www.w3.org/2001/XMLSchema-instance" xsi:schemaLocation="http://www.topografix.com/GPX/1/1 http://www.topografix.com/GPX/1/1/gpx.xsd" version="1.1" creator="VisuGPX - https://www.visugpx.com">
  <metadata>
    <name>Tour de France 2019</name>
    <desc><![CDATA[4272km en 2 mois en tandem avec notre petit chien dans le panier avant]]></desc>
  </metadata>
  <trk>
    <name><![CDATA[Tracé 20191011-092854]]></name>
    <trkseg>
      <trkpt lat="44.52399" lon="6.40114">
        <ele>802.847</ele>
        <time>2019-10-11T07:29:09Z</time>
      </trkpt>
      <trkpt lat="44.524" lon="6.40112">
        <ele>803.41</ele>
        <time>2019-10-11T07:30:03Z</time>
      </trkpt>
      <trkpt lat="44.52423" lon="6.40057">
        <ele>804.748</ele>
        <time>2019-10-11T07:37:15Z</time>
      </trkpt>
      <trkpt lat="44.52445" lon="6.40027">
        <ele>799.954</ele>
        <time>2019-10-11T07:37:45Z</time>
      </trkpt>
      <trkpt lat="44.52348" lon="6.39965">
        <ele>802.436</ele>
        <time>2019-10-11T07:38:15Z</time>
      </trkpt>
      <trkpt lat="44.52279" lon="6.39829">
        <ele>801.547</ele>
        <time>2019-10-11T07:38:45Z</time>
      </trkpt>
      <trkpt lat="44.52285" lon="6.39645">
        <ele>802.013</ele>
        <time>2019-10-11T07:39:18Z</time>
      </trkpt>
      <trkpt lat="44.52276" lon="6.39481">
        <ele>799.879</ele>
        <time>2019-10-11T07:39:48Z</time>
      </trkpt>
      <trkpt lat="44.52175" lon="6.39395">
        <ele>797.178</ele>
        <time>2019-10-11T07:40:18Z</time>
      </trkpt>
      <trkpt lat="44.52111" lon="6.39267">
        <ele>808.161</ele>
        <time>2019-10-11T07:40:48Z</time>
      </trkpt>
      <trkpt lat="44.52034" lon="6.39133">
        <ele>813.82</ele>
        <time>2019-10-11T07:41:19Z</time>
      </trkpt>
      <trkpt lat="44.51943" lon="6.38997">
        <ele>809.307</ele>
        <time>2019-10-11T07:41:49Z</time>
      </trkpt>
      <trkpt lat="44.51916" lon="6.38838">
        <ele>806.792</ele>
        <time>2019-10-11T07:42:19Z</time>
      </trkpt>
      <trkpt lat="44.51933" lon="6.38666">
        <ele>806.52</ele>
        <time>2019-10-11T07:42:49Z</time>
      </trkpt>
      <trkpt lat="44.51892" lon="6.38511">
        <ele>806.916</ele>
        <time>2019-10-11T07:43:19Z</time>
      </trkpt>
      <trkpt lat="44.51794" lon="6.38413">
        <ele>810.369</ele>
        <time>2019-10-11T07:43:49Z</time>
      </trkpt>
      <trkpt lat="44.51718" lon="6.38301">
        <ele>817.522</ele>
        <time>2019-10-11T07:44:19Z</time>
      </trkpt>
      <trkpt lat="44.51657" lon="6.38138">
        <ele>819.181</ele>
        <time>2019-10-11T07:44:52Z</time>
      </trkpt>
      <trkpt lat="44.51629" lon="6.37983">
        <ele>823.801</ele>
        <time>2019-10-11T07:45:22Z</time>
      </trkpt>
      <trkpt lat="44.51602" lon="6.37862">
        <ele>823.228</ele>
        <time>2019-10-11T07:45:52Z</time>
      </trkpt>
      <trkpt lat="44.51576" lon="6.37784">
        <ele>827.663</ele>
        <time>2019-10-11T07:46:22Z</time>
      </trkpt>
      <trkpt lat="44.51533" lon="6.37713">
        <ele>830.88</ele>
        <time>2019-10-11T07:46:52Z</time>
      </trkpt>
      <trkpt lat="44.5149" lon="6.3765">
        <ele>837.554</ele>
        <time>2019-10-11T07:47:25Z</time>
      </trkpt>
      <trkpt lat="44.51465" lon="6.37577">
        <ele>846.818</ele>
        <time>2019-10-11T07:47:55Z</time>
      </trkpt>
      <trkpt lat="44.51445" lon="6.37499">
        <ele>848.224</ele>
        <time>2019-10-11T07:48:25Z</time>
      </trkpt>
      <trkpt lat="44.51424" lon="6.37416">
        <ele>851.184</ele>
        <time>2019-10-11T07:48:55Z</time>
      </trkpt>
      <trkpt lat="44.51399" lon="6.37325">
        <ele>852.252</ele>
        <time>2019-10-11T07:49:25Z</time>
      </trkpt>
      <trkpt lat="44.51375" lon="6.3721">
        <ele>849.591</ele>
        <time>2019-10-11T07:49:55Z</time>
      </trkpt>
      <trkpt lat="44.51422" lon="6.37117">
        <ele>852.577</ele>
        <time>2019-10-11T07:50:28Z</time>
      </trkpt>
      <trkpt lat="44.5146" lon="6.3704">
        <ele>855.796</ele>
        <time>2019-10-11T07:50:58Z</time>
      </trkpt>
      <trkpt lat="44.51439" lon="6.36952">
        <ele>862.843</ele>
        <time>2019-10-11T07:51:28Z</time>
      </trkpt>
      <trkpt lat="44.51413" lon="6.36878">
        <ele>867.389</ele>
        <time>2019-10-11T07:51:58Z</time>
      </trkpt>
      <trkpt lat="44.5139" lon="6.36809">
        <ele>873.725</ele>
        <time>2019-10-11T07:52:28Z</time>
      </trkpt>
      <trkpt lat="44.51366" lon="6.36742">
        <ele>880.36</ele>
        <time>2019-10-11T07:52:58Z</time>
      </trkpt>
      <trkpt lat="44.51345" lon="6.36659">
        <ele>890.682</ele>
        <time>2019-10-11T07:53:37Z</time>
      </trkpt>
      <trkpt lat="44.51348" lon="6.36589">
        <ele>892.211</ele>
        <time>2019-10-11T07:54:07Z</time>
      </trkpt>
      <trkpt lat="44.51377" lon="6.3652">
        <ele>897.358</ele>
        <time>2019-10-11T07:54:43Z</time>
      </trkpt>
      <trkpt lat="44.51384" lon="6.36446">
        <ele>899.399</ele>
        <time>2019-10-11T07:55:16Z</time>
      </trkpt>
      <trkpt lat="44.51354" lon="6.36378">
        <ele>903.08</ele>
        <time>2019-10-11T07:55:49Z</time>
      </trkpt>
      <trkpt lat="44.51311" lon="6.36313">
        <ele>913.32</ele>
        <time>2019-10-11T07:56:28Z</time>
      </trkpt>
      <trkpt lat="44.51293" lon="6.3622">
        <ele>920.912</ele>
        <time>2019-10-11T07:57:13Z</time>
      </trkpt>
      <trkpt lat="44.51268" lon="6.36149">
        <ele>925.099</ele>
        <time>2019-10-11T07:57:49Z</time>
      </trkpt>
      <trkpt lat="44.51223" lon="6.36102">
        <ele>927.851</ele>
        <time>2019-10-11T07:58:22Z</time>
      </trkpt>
      <trkpt lat="44.51176" lon="6.36043">
        <ele>932.235</ele>
        <time>2019-10-11T07:59:01Z</time>
      </trkpt>
      <trkpt lat="44.51167" lon="6.35969">
        <ele>940.685</ele>
        <time>2019-10-11T07:59:34Z</time>
      </trkpt>
      <trkpt lat="44.51187" lon="6.35897">
        <ele>946.222</ele>
        <time>2019-10-11T08:00:04Z</time>
      </trkpt>
      <trkpt lat="44.5121" lon="6.35822">
        <ele>950.536</ele>
        <time>2019-10-11T08:00:34Z</time>
      </trkpt>
      <trkpt lat="44.5123" lon="6.35737">
        <ele>951.855</ele>
        <time>2019-10-11T08:01:04.001Z</time>
      </trkpt>
      <trkpt lat="44.51215" lon="6.35638">
        <ele>953.457</ele>
        <time>2019-10-11T08:01:34.001Z</time>
      </trkpt>
      <trkpt lat="44.51138" lon="6.35604">
        <ele>950.637</ele>
        <time>2019-10-11T08:02:04.001Z</time>
      </trkpt>
      <trkpt lat="44.51056" lon="6.35652">
        <ele>951.622</ele>
        <time>2019-10-11T08:02:34.001Z</time>
      </trkpt>
      <trkpt lat="44.50992" lon="6.3559">
        <ele>958.047</ele>
        <time>2019-10-11T08:03:07.001Z</time>
      </trkpt>
      <trkpt lat="44.50951" lon="6.35532">
        <ele>964.363</ele>
        <time>2019-10-11T08:03:37.001Z</time>
      </trkpt>
      <trkpt lat="44.50906" lon="6.35471">
        <ele>966.183</ele>
        <time>2019-10-11T08:04:07.001Z</time>
      </trkpt>
      <trkpt lat="44.50889" lon="6.35402">
        <ele>971.29</ele>
        <time>2019-10-11T08:04:37.001Z</time>
      </trkpt>
      <trkpt lat="44.50902" lon="6.35326">
        <ele>976.446</ele>
        <time>2019-10-11T08:05:07.001Z</time>
      </trkpt>
      <trkpt lat="44.50895" lon="6.35255">
        <ele>976.955</ele>
        <time>2019-10-11T08:05:37.001Z</time>
      </trkpt>
      <trkpt lat="44.50879" lon="6.35198">
        <ele>979.037</ele>
        <time>2019-10-11T08:07:49.001Z</time>
      </trkpt>
      <trkpt lat="44.50873" lon="6.35208">
        <ele>981.074</ele>
        <time>2019-10-11T08:08:40.001Z</time>
      </trkpt>
      <trkpt lat="44.50818" lon="6.35176">
        <ele>983.136</ele>
        <time>2019-10-11T08:09:10.001Z</time>
      </trkpt>
      <trkpt lat="44.50761" lon="6.35152">
        <ele>985.668</ele>
        <time>2019-10-11T08:09:40.001Z</time>
      </trkpt>
      <trkpt lat="44.50713" lon="6.35113">
        <ele>991.529</ele>
        <time>2019-10-11T08:10:10.001Z</time>
      </trkpt>
      <trkpt lat="44.50664" lon="6.3506">
        <ele>998.415</ele>
        <time>2019-10-11T08:10:43.001Z</time>
      </trkpt>
      <trkpt lat="44.50606" lon="6.35004">
        <ele>1007.547</ele>
        <time>2019-10-11T08:11:13.001Z</time>
      </trkpt>
      <trkpt lat="44.50541" lon="6.34938">
        <ele>1003.481</ele>
        <time>2019-10-11T08:11:43.001Z</time>
      </trkpt>
      <trkpt lat="44.50464" lon="6.34906">
        <ele>998.767</ele>
        <time>2019-10-11T08:12:13.001Z</time>
      </trkpt>
      <trkpt lat="44.50397" lon="6.34975">
        <ele>996.608</ele>
        <time>2019-10-11T08:12:43.001Z</time>
      </trkpt>
      <trkpt lat="44.50362" lon="6.34889">
        <ele>1000.064</ele>
        <time>2019-10-11T08:13:13.001Z</time>
      </trkpt>
      <trkpt lat="44.50309" lon="6.34861">
        <ele>1005.959</ele>
        <time>2019-10-11T08:13:43.001Z</time>
      </trkpt>
      <trkpt lat="44.5026" lon="6.34838">
        <ele>1013.604</ele>
        <time>2019-10-11T08:14:13.001Z</time>
      </trkpt>
      <trkpt lat="44.50234" lon="6.34783">
        <ele>1015.642</ele>
        <time>2019-10-11T08:14:43.001Z</time>
      </trkpt>
      <trkpt lat="44.50234" lon="6.34709">
        <ele>1022.303</ele>
        <time>2019-10-11T08:15:13.001Z</time>
      </trkpt>
      <trkpt lat="44.50211" lon="6.3464">
        <ele>1025.019</ele>
        <time>2019-10-11T08:15:43.001Z</time>
      </trkpt>
      <trkpt lat="44.50161" lon="6.34593">
        <ele>1025.791</ele>
        <time>2019-10-11T08:16:13.001Z</time>
      </trkpt>
      <trkpt lat="44.50095" lon="6.3456">
        <ele>1030.485</ele>
        <time>2019-10-11T08:16:46.001Z</time>
      </trkpt>
      <trkpt lat="44.50019" lon="6.34545">
        <ele>1028.493</ele>
        <time>2019-10-11T08:17:16Z</time>
      </trkpt>
      <trkpt lat="44.49931" lon="6.34537">
        <ele>1029.781</ele>
        <time>2019-10-11T08:17:46.001Z</time>
      </trkpt>
      <trkpt lat="44.49893" lon="6.34387">
        <ele>1029.549</ele>
        <time>2019-10-11T08:18:16Z</time>
      </trkpt>
      <trkpt lat="44.49783" lon="6.34382">
        <ele>1020.388</ele>
        <time>2019-10-11T08:18:46.001Z</time>
      </trkpt>
      <trkpt lat="44.49746" lon="6.34456">
        <ele>1019.83</ele>
        <time>2019-10-11T08:22:22.001Z</time>
      </trkpt>
      <trkpt lat="44.49607" lon="6.34371">
        <ele>1018.037</ele>
        <time>2019-10-11T08:22:52.001Z</time>
      </trkpt>
      <trkpt lat="44.49476" lon="6.34234">
        <ele>1013.801</ele>
        <time>2019-10-11T08:23:22.001Z</time>
      </trkpt>
      <trkpt lat="44.49429" lon="6.34179">
        <ele>1010.984</ele>
        <time>2019-10-11T08:24:16Z</time>
      </trkpt>
      <trkpt lat="44.49418" lon="6.34177">
        <ele>1013.15</ele>
        <time>2019-10-11T08:44:43.001Z</time>
      </trkpt>
      <trkpt lat="44.49497" lon="6.34057">
        <ele>1018.236</ele>
        <time>2019-10-11T08:47:19.001Z</time>
      </trkpt>
      <trkpt lat="44.49542" lon="6.33852">
        <ele>1014.51</ele>
        <time>2019-10-11T08:47:52.001Z</time>
      </trkpt>
      <trkpt lat="44.49451" lon="6.33609">
        <ele>1006.076</ele>
        <time>2019-10-11T08:48:22.001Z</time>
      </trkpt>
      <trkpt lat="44.49272" lon="6.33428">
        <ele>998.541</ele>
        <time>2019-10-11T08:48:52.001Z</time>
      </trkpt>
      <trkpt lat="44.49179" lon="6.33472">
        <ele>998.3</ele>
        <time>2019-10-11T08:49:22.001Z</time>
      </trkpt>
      <trkpt lat="44.49098" lon="6.33525">
        <ele>1008.445</ele>
        <time>2019-10-11T08:49:52.001Z</time>
      </trkpt>
      <trkpt lat="44.49018" lon="6.33469">
        <ele>1009.303</ele>
        <time>2019-10-11T08:50:22.001Z</time>
      </trkpt>
      <trkpt lat="44.49009" lon="6.33362">
        <ele>1012.214</ele>
        <time>2019-10-11T08:50:52.001Z</time>
      </trkpt>
      <trkpt lat="44.49041" lon="6.33255">
        <ele>1022.312</ele>
        <time>2019-10-11T08:51:22.001Z</time>
      </trkpt>
      <trkpt lat="44.49052" lon="6.33136">
        <ele>1026.579</ele>
        <time>2019-10-11T08:51:52.001Z</time>
      </trkpt>
      <trkpt lat="44.49034" lon="6.33023">
        <ele>1025.188</ele>
        <time>2019-10-11T08:52:22.001Z</time>
      </trkpt>
      <trkpt lat="44.49034" lon="6.32907">
        <ele>1019.347</ele>
        <time>2019-10-11T08:52:52.001Z</time>
      </trkpt>
      <trkpt lat="44.49006" lon="6.3282">
        <ele>1023.615</ele>
        <time>2019-10-11T08:55:31.001Z</time>
      </trkpt>
      <trkpt lat="44.48833" lon="6.32732">
        <ele>1014.242</ele>
        <time>2019-10-11T08:56:01.001Z</time>
      </trkpt>
      <trkpt lat="44.48696" lon="6.32455">
        <ele>1005.343</ele>
        <time>2019-10-11T08:56:31.001Z</time>
      </trkpt>
      <trkpt lat="44.48615" lon="6.32298">
        <ele>1006.322</ele>
        <time>2019-10-11T08:57:01.001Z</time>
      </trkpt>
      <trkpt lat="44.4858" lon="6.32204">
        <ele>1018.991</ele>
        <time>2019-10-11T08:57:31.001Z</time>
      </trkpt>
      <trkpt lat="44.48557" lon="6.32121">
        <ele>1022.268</ele>
        <time>2019-10-11T08:58:01.001Z</time>
      </trkpt>
      <trkpt lat="44.48524" lon="6.32049">
        <ele>1018.248</ele>
        <time>2019-10-11T08:58:31.001Z</time>
      </trkpt>
      <trkpt lat="44.48467" lon="6.31969">
        <ele>1019.565</ele>
        <time>2019-10-11T08:59:01.001Z</time>
      </trkpt>
      <trkpt lat="44.4841" lon="6.31906">
        <ele>1025.232</ele>
        <time>2019-10-11T08:59:31.001Z</time>
      </trkpt>
      <trkpt lat="44.48322" lon="6.31892">
        <ele>1030.954</ele>
        <time>2019-10-11T09:00:01.001Z</time>
      </trkpt>
      <trkpt lat="44.48242" lon="6.31909">
        <ele>1030.332</ele>
        <time>2019-10-11T09:00:31.001Z</time>
      </trkpt>
      <trkpt lat="44.48157" lon="6.31942">
        <ele>1029.792</ele>
        <time>2019-10-11T09:01:01.001Z</time>
      </trkpt>
      <trkpt lat="44.48095" lon="6.31856">
        <ele>1033.175</ele>
        <time>2019-10-11T09:01:34.001Z</time>
      </trkpt>
      <trkpt lat="44.4808" lon="6.31746">
        <ele>1036.661</ele>
        <time>2019-10-11T09:02:04.001Z</time>
      </trkpt>
      <trkpt lat="44.48096" lon="6.31631">
        <ele>1039.221</ele>
        <time>2019-10-11T09:02:34.001Z</time>
      </trkpt>
      <trkpt lat="44.48055" lon="6.3154">
        <ele>1040.232</ele>
        <time>2019-10-11T09:03:04.001Z</time>
      </trkpt>
      <trkpt lat="44.48" lon="6.31516">
        <ele>1040.28</ele>
        <time>2019-10-11T09:03:58.001Z</time>
      </trkpt>
      <trkpt lat="44.47922" lon="6.3151">
        <ele>1043.917</ele>
        <time>2019-10-11T09:04:28.001Z</time>
      </trkpt>
      <trkpt lat="44.47803" lon="6.31603">
        <ele>1040.52</ele>
        <time>2019-10-11T09:04:58.001Z</time>
      </trkpt>
      <trkpt lat="44.47617" lon="6.3172">
        <ele>1017.829</ele>
        <time>2019-10-11T09:05:28.001Z</time>
      </trkpt>
      <trkpt lat="44.47468" lon="6.31766">
        <ele>1000.972</ele>
        <time>2019-10-11T09:05:58.001Z</time>
      </trkpt>
      <trkpt lat="44.47455" lon="6.31822">
        <ele>1001.488</ele>
        <time>2019-10-11T09:07:49.001Z</time>
      </trkpt>
      <trkpt lat="44.47425" lon="6.31827">
        <ele>994.524</ele>
        <time>2019-10-11T09:08:19.001Z</time>
      </trkpt>
      <trkpt lat="44.47479" lon="6.31578">
        <ele>969.658</ele>
        <time>2019-10-11T09:08:52.001Z</time>
      </trkpt>
      <trkpt lat="44.47247" lon="6.31741">
        <ele>936.953</ele>
        <time>2019-10-11T09:09:22.001Z</time>
      </trkpt>
      <trkpt lat="44.471" lon="6.31966">
        <ele>910.856</ele>
        <time>2019-10-11T09:09:52.001Z</time>
      </trkpt>
      <trkpt lat="44.47136" lon="6.32169">
        <ele>904.559</ele>
        <time>2019-10-11T09:11:13.001Z</time>
      </trkpt>
      <trkpt lat="44.47286" lon="6.32454">
        <ele>891.748</ele>
        <time>2019-10-11T09:11:43.001Z</time>
      </trkpt>
      <trkpt lat="44.4719" lon="6.32717">
        <ele>878.597</ele>
        <time>2019-10-11T09:12:13.001Z</time>
      </trkpt>
      <trkpt lat="44.47005" lon="6.32593">
        <ele>871.113</ele>
        <time>2019-10-11T09:12:43.001Z</time>
      </trkpt>
      <trkpt lat="44.47007" lon="6.33053">
        <ele>842.586</ele>
        <time>2019-10-11T09:13:13.001Z</time>
      </trkpt>
      <trkpt lat="44.46856" lon="6.33508">
        <ele>804.053</ele>
        <time>2019-10-11T09:13:43.001Z</time>
      </trkpt>
      <trkpt lat="44.46743" lon="6.33911">
        <ele>781.227</ele>
        <time>2019-10-11T09:14:13.001Z</time>
      </trkpt>
      <trkpt lat="44.46695" lon="6.34196">
        <ele>780.297</ele>
        <time>2019-10-11T09:14:43.001Z</time>
      </trkpt>
      <trkpt lat="44.46711" lon="6.3439">
        <ele>785.293</ele>
        <time>2019-10-11T09:15:16Z</time>
      </trkpt>
      <trkpt lat="44.46734" lon="6.34553">
        <ele>785.445</ele>
        <time>2019-10-11T09:15:46.001Z</time>
      </trkpt>
      <trkpt lat="44.4682" lon="6.34665">
        <ele>791.175</ele>
        <time>2019-10-11T09:16:16Z</time>
      </trkpt>
      <trkpt lat="44.46761" lon="6.34767">
        <ele>786.785</ele>
        <time>2019-10-11T09:16:46.001Z</time>
      </trkpt>
      <trkpt lat="44.46723" lon="6.34894">
        <ele>794.06</ele>
        <time>2019-10-11T09:17:16Z</time>
      </trkpt>
      <trkpt lat="44.46744" lon="6.35089">
        <ele>794.29</ele>
        <time>2019-10-11T09:17:46.001Z</time>
      </trkpt>
      <trkpt lat="44.46698" lon="6.35281">
        <ele>791.35</ele>
        <time>2019-10-11T09:18:16Z</time>
      </trkpt>
      <trkpt lat="44.46636" lon="6.35312">
        <ele>796.508</ele>
        <time>2019-10-11T09:18:46.001Z</time>
      </trkpt>
      <trkpt lat="44.46565" lon="6.35414">
        <ele>796.985</ele>
        <time>2019-10-11T09:19:16Z</time>
      </trkpt>
      <trkpt lat="44.46512" lon="6.35644">
        <ele>792.856</ele>
        <time>2019-10-11T09:19:46.001Z</time>
      </trkpt>
      <trkpt lat="44.46491" lon="6.35777">
        <ele>794.098</ele>
        <time>2019-10-11T09:20:16Z</time>
      </trkpt>
      <trkpt lat="44.465" lon="6.36138">
        <ele>784.567</ele>
        <time>2019-10-11T09:20:49.001Z</time>
      </trkpt>
      <trkpt lat="44.46328" lon="6.36233">
        <ele>782.421</ele>
        <time>2019-10-11T09:21:19.001Z</time>
      </trkpt>
      <trkpt lat="44.46299" lon="6.36415">
        <ele>782.482</ele>
        <time>2019-10-11T09:21:49.001Z</time>
      </trkpt>
      <trkpt lat="44.46325" lon="6.36529">
        <ele>777.081</ele>
        <time>2019-10-11T09:22:19.001Z</time>
      </trkpt>
      <trkpt lat="44.46394" lon="6.36661">
        <ele>779.862</ele>
        <time>2019-10-11T09:22:49.001Z</time>
      </trkpt>
      <trkpt lat="44.46284" lon="6.36886">
        <ele>783.19</ele>
        <time>2019-10-11T09:23:19.001Z</time>
      </trkpt>
      <trkpt lat="44.46187" lon="6.37067">
        <ele>785.871</ele>
        <time>2019-10-11T09:23:49.001Z</time>
      </trkpt>
      <trkpt lat="44.46131" lon="6.37268">
        <ele>786.636</ele>
        <time>2019-10-11T09:24:19.001Z</time>
      </trkpt>
      <trkpt lat="44.46028" lon="6.37435">
        <ele>782.326</ele>
        <time>2019-10-11T09:24:49.001Z</time>
      </trkpt>
      <trkpt lat="44.45971" lon="6.37612">
        <ele>780.273</ele>
        <time>2019-10-11T09:25:19.001Z</time>
      </trkpt>
      <trkpt lat="44.45918" lon="6.37754">
        <ele>782.53</ele>
        <time>2019-10-11T09:25:49.001Z</time>
      </trkpt>
      <trkpt lat="44.45846" lon="6.37859">
        <ele>790.63</ele>
        <time>2019-10-11T09:26:19.001Z</time>
      </trkpt>
      <trkpt lat="44.45848" lon="6.37854">
        <ele>790.246</ele>
        <time>2019-10-11T09:27:34.001Z</time>
      </trkpt>
      <trkpt lat="44.45733" lon="6.38143">
        <ele>785.193</ele>
        <time>2019-10-11T09:46:23.001Z</time>
      </trkpt>
      <trkpt lat="44.45727" lon="6.38267">
        <ele>797.607</ele>
        <time>2019-10-11T09:46:53.001Z</time>
      </trkpt>
      <trkpt lat="44.45728" lon="6.38381">
        <ele>800.221</ele>
        <time>2019-10-11T09:47:23.001Z</time>
      </trkpt>
      <trkpt lat="44.45626" lon="6.38667">
        <ele>808.415</ele>
        <time>2019-10-11T09:48:57.001Z</time>
      </trkpt>
      <trkpt lat="44.45578" lon="6.38752">
        <ele>813.197</ele>
        <time>2019-10-11T09:49:27.001Z</time>
      </trkpt>
      <trkpt lat="44.45551" lon="6.38848">
        <ele>810.247</ele>
        <time>2019-10-11T09:49:57.001Z</time>
      </trkpt>
      <trkpt lat="44.45533" lon="6.38952">
        <ele>814.971</ele>
        <time>2019-10-11T09:50:27.001Z</time>
      </trkpt>
      <trkpt lat="44.45522" lon="6.39063">
        <ele>812.695</ele>
        <time>2019-10-11T09:50:57.001Z</time>
      </trkpt>
      <trkpt lat="44.45496" lon="6.3916">
        <ele>812.004</ele>
        <time>2019-10-11T09:51:27.001Z</time>
      </trkpt>
      <trkpt lat="44.45235" lon="6.39716">
        <ele>822.897</ele>
        <time>2019-10-11T09:56:19.001Z</time>
      </trkpt>
      <trkpt lat="44.45182" lon="6.39808">
        <ele>825.666</ele>
        <time>2019-10-11T09:56:52.001Z</time>
      </trkpt>
      <trkpt lat="44.45165" lon="6.39851">
        <ele>827.285</ele>
        <time>2019-10-11T09:57:43.001Z</time>
      </trkpt>
      <trkpt lat="44.45153" lon="6.39895">
        <ele>830.247</ele>
        <time>2019-10-11T09:59:49.001Z</time>
      </trkpt>
      <trkpt lat="44.45145" lon="6.39932">
        <ele>830.695</ele>
        <time>2019-10-11T10:00:31.001Z</time>
      </trkpt>
      <trkpt lat="44.45133" lon="6.39978">
        <ele>831.337</ele>
        <time>2019-10-11T10:01:13.001Z</time>
      </trkpt>
      <trkpt lat="44.45081" lon="6.40328">
        <ele>838.082</ele>
        <time>2019-10-11T10:04:55.001Z</time>
      </trkpt>
      <trkpt lat="44.45062" lon="6.40369">
        <ele>844.182</ele>
        <time>2019-10-11T10:07:55.001Z</time>
      </trkpt>
      <trkpt lat="44.45047" lon="6.40402">
        <ele>841.175</ele>
        <time>2019-10-11T10:10:34.001Z</time>
      </trkpt>
      <trkpt lat="44.45023" lon="6.40458">
        <ele>839.307</ele>
        <time>2019-10-11T10:13:35.001Z</time>
      </trkpt>
      <trkpt lat="44.44986" lon="6.40523">
        <ele>842.638</ele>
        <time>2019-10-11T10:14:08.001Z</time>
      </trkpt>
      <trkpt lat="44.44947" lon="6.40585">
        <ele>844.539</ele>
        <time>2019-10-11T10:14:38.001Z</time>
      </trkpt>
      <trkpt lat="44.44908" lon="6.40658">
        <ele>848.067</ele>
        <time>2019-10-11T10:15:14.001Z</time>
      </trkpt>
      <trkpt lat="44.44876" lon="6.40722">
        <ele>852.522</ele>
        <time>2019-10-11T10:15:44.001Z</time>
      </trkpt>
      <trkpt lat="44.4484" lon="6.40786">
        <ele>851.992</ele>
        <time>2019-10-11T10:16:17.001Z</time>
      </trkpt>
      <trkpt lat="44.44812" lon="6.4087">
        <ele>851.109</ele>
        <time>2019-10-11T10:16:50.001Z</time>
      </trkpt>
      <trkpt lat="44.44797" lon="6.40956">
        <ele>852.763</ele>
        <time>2019-10-11T10:17:20.001Z</time>
      </trkpt>
      <trkpt lat="44.44802" lon="6.4104">
        <ele>855.867</ele>
        <time>2019-10-11T10:17:53.001Z</time>
      </trkpt>
      <trkpt lat="44.43704" lon="6.4232">
        <ele>892.909</ele>
        <time>2019-10-11T10:33:18.001Z</time>
      </trkpt>
      <trkpt lat="44.43693" lon="6.42333">
        <ele>882.714</ele>
        <time>2019-10-11T10:35:03.001Z</time>
      </trkpt>
      <trkpt lat="44.43647" lon="6.42384">
        <ele>874.934</ele>
        <time>2019-10-11T10:35:36.001Z</time>
      </trkpt>
      <trkpt lat="44.43606" lon="6.42421">
        <ele>875.826</ele>
        <time>2019-10-11T10:38:22.001Z</time>
      </trkpt>
      <trkpt lat="44.4355" lon="6.42474">
        <ele>880.011</ele>
        <time>2019-10-11T10:38:52.001Z</time>
      </trkpt>
      <trkpt lat="44.43492" lon="6.42541">
        <ele>886.502</ele>
        <time>2019-10-11T10:39:22.001Z</time>
      </trkpt>
      <trkpt lat="44.4344" lon="6.4264">
        <ele>891.685</ele>
        <time>2019-10-11T10:39:58.001Z</time>
      </trkpt>
      <trkpt lat="44.43397" lon="6.42714">
        <ele>892.602</ele>
        <time>2019-10-11T10:40:28.001Z</time>
      </trkpt>
      <trkpt lat="44.4334" lon="6.42797">
        <ele>889.682</ele>
        <time>2019-10-11T10:40:58.001Z</time>
      </trkpt>
      <trkpt lat="44.43274" lon="6.42846">
        <ele>892.485</ele>
        <time>2019-10-11T10:41:28.001Z</time>
      </trkpt>
      <trkpt lat="44.432" lon="6.42897">
        <ele>886.123</ele>
        <time>2019-10-11T10:41:58.001Z</time>
      </trkpt>
      <trkpt lat="44.43152" lon="6.42936">
        <ele>892.488</ele>
        <time>2019-10-11T10:43:01.001Z</time>
      </trkpt>
      <trkpt lat="44.43073" lon="6.42982">
        <ele>894.831</ele>
        <time>2019-10-11T10:43:31.001Z</time>
      </trkpt>
      <trkpt lat="44.43012" lon="6.43028">
        <ele>899.274</ele>
        <time>2019-10-11T10:44:01.001Z</time>
      </trkpt>
      <trkpt lat="44.42933" lon="6.43097">
        <ele>899.324</ele>
        <time>2019-10-11T10:44:31.001Z</time>
      </trkpt>
      <trkpt lat="44.42886" lon="6.43195">
        <ele>900.133</ele>
        <time>2019-10-11T10:45:01.001Z</time>
      </trkpt>
      <trkpt lat="44.42843" lon="6.43313">
        <ele>899.69</ele>
        <time>2019-10-11T10:45:31.001Z</time>
      </trkpt>
      <trkpt lat="44.42802" lon="6.43453">
        <ele>898.97</ele>
        <time>2019-10-11T10:46:04.001Z</time>
      </trkpt>
      <trkpt lat="44.42782" lon="6.43504">
        <ele>898.26</ele>
        <time>2019-10-11T10:46:52.001Z</time>
      </trkpt>
      <trkpt lat="44.42776" lon="6.43491">
        <ele>896.835</ele>
        <time>2019-10-11T11:06:01.001Z</time>
      </trkpt>
      <trkpt lat="44.42786" lon="6.43513">
        <ele>899.595</ele>
        <time>2019-10-11T11:11:34.001Z</time>
      </trkpt>
      <trkpt lat="44.4273" lon="6.43608">
        <ele>905.641</ele>
        <time>2019-10-11T11:12:04.001Z</time>
      </trkpt>
      <trkpt lat="44.42653" lon="6.43676">
        <ele>907.725</ele>
        <time>2019-10-11T11:12:34.001Z</time>
      </trkpt>
      <trkpt lat="44.42578" lon="6.43719">
        <ele>901.335</ele>
        <time>2019-10-11T11:13:07.001Z</time>
      </trkpt>
      <trkpt lat="44.42508" lon="6.43829">
        <ele>906.038</ele>
        <time>2019-10-11T11:13:43.001Z</time>
      </trkpt>
      <trkpt lat="44.424" lon="6.43975">
        <ele>904.627</ele>
        <time>2019-10-11T11:14:13.001Z</time>
      </trkpt>
      <trkpt lat="44.42335" lon="6.44106">
        <ele>905.916</ele>
        <time>2019-10-11T11:14:43.001Z</time>
      </trkpt>
      <trkpt lat="44.42285" lon="6.44228">
        <ele>909.011</ele>
        <time>2019-10-11T11:15:13.001Z</time>
      </trkpt>
      <trkpt lat="44.42199" lon="6.44322">
        <ele>913.304</ele>
        <time>2019-10-11T11:15:46.001Z</time>
      </trkpt>
      <trkpt lat="44.42112" lon="6.44379">
        <ele>910.627</ele>
        <time>2019-10-11T11:16:16Z</time>
      </trkpt>
      <trkpt lat="44.42023" lon="6.44432">
        <ele>913.274</ele>
        <time>2019-10-11T11:16:46.001Z</time>
      </trkpt>
      <trkpt lat="44.41951" lon="6.44525">
        <ele>917.23</ele>
        <time>2019-10-11T11:17:16Z</time>
      </trkpt>
      <trkpt lat="44.41875" lon="6.44608">
        <ele>925.024</ele>
        <time>2019-10-11T11:17:46.001Z</time>
      </trkpt>
      <trkpt lat="44.41788" lon="6.44656">
        <ele>929.628</ele>
        <time>2019-10-11T11:18:16Z</time>
      </trkpt>
      <trkpt lat="44.41697" lon="6.44695">
        <ele>929.073</ele>
        <time>2019-10-11T11:18:46.001Z</time>
      </trkpt>
      <trkpt lat="44.41609" lon="6.44733">
        <ele>928.855</ele>
        <time>2019-10-11T11:19:16Z</time>
      </trkpt>
      <trkpt lat="44.41513" lon="6.44761">
        <ele>932.447</ele>
        <time>2019-10-11T11:19:46.001Z</time>
      </trkpt>
      <trkpt lat="44.41418" lon="6.44778">
        <ele>931.728</ele>
        <time>2019-10-11T11:20:16Z</time>
      </trkpt>
      <trkpt lat="44.41326" lon="6.44813">
        <ele>931.442</ele>
        <time>2019-10-11T11:20:46.001Z</time>
      </trkpt>
      <trkpt lat="44.41244" lon="6.44874">
        <ele>930.537</ele>
        <time>2019-10-11T11:21:16Z</time>
      </trkpt>
      <trkpt lat="44.41181" lon="6.45007">
        <ele>936.069</ele>
        <time>2019-10-11T11:21:49.001Z</time>
      </trkpt>
      <trkpt lat="44.41131" lon="6.45162">
        <ele>942.282</ele>
        <time>2019-10-11T11:22:19.001Z</time>
      </trkpt>
      <trkpt lat="44.41027" lon="6.45328">
        <ele>939.655</ele>
        <time>2019-10-11T11:22:49.001Z</time>
      </trkpt>
      <trkpt lat="44.40796" lon="6.45494">
        <ele>933.262</ele>
        <time>2019-10-11T11:23:19.001Z</time>
      </trkpt>
      <trkpt lat="44.40678" lon="6.45675">
        <ele>930.671</ele>
        <time>2019-10-11T11:23:49.001Z</time>
      </trkpt>
      <trkpt lat="44.40602" lon="6.4583">
        <ele>932.414</ele>
        <time>2019-10-11T11:24:19.001Z</time>
      </trkpt>
      <trkpt lat="44.40547" lon="6.45931">
        <ele>934.612</ele>
        <time>2019-10-11T11:24:49.001Z</time>
      </trkpt>
      <trkpt lat="44.40507" lon="6.46026">
        <ele>938.374</ele>
        <time>2019-10-11T11:25:19.001Z</time>
      </trkpt>
      <trkpt lat="44.40471" lon="6.46125">
        <ele>937.465</ele>
        <time>2019-10-11T11:25:49.001Z</time>
      </trkpt>
      <trkpt lat="44.40422" lon="6.4622">
        <ele>939.636</ele>
        <time>2019-10-11T11:26:19.001Z</time>
      </trkpt>
      <trkpt lat="44.40354" lon="6.46279">
        <ele>953.058</ele>
        <time>2019-10-11T11:26:49.001Z</time>
      </trkpt>
      <trkpt lat="44.40269" lon="6.46389">
        <ele>954.593</ele>
        <time>2019-10-11T11:27:22.001Z</time>
      </trkpt>
      <trkpt lat="44.40221" lon="6.46639">
        <ele>951.011</ele>
        <time>2019-10-11T11:27:52.001Z</time>
      </trkpt>
      <trkpt lat="44.40168" lon="6.46841">
        <ele>939.681</ele>
        <time>2019-10-11T11:28:22.001Z</time>
      </trkpt>
      <trkpt lat="44.40125" lon="6.46926">
        <ele>950.646</ele>
        <time>2019-10-11T11:28:52.001Z</time>
      </trkpt>
      <trkpt lat="44.40077" lon="6.47003">
        <ele>962.466</ele>
        <time>2019-10-11T11:29:22.001Z</time>
      </trkpt>
      <trkpt lat="44.40016" lon="6.47045">
        <ele>966.176</ele>
        <time>2019-10-11T11:29:52.001Z</time>
      </trkpt>
      <trkpt lat="44.39947" lon="6.47073">
        <ele>962.379</ele>
        <time>2019-10-11T11:30:22.001Z</time>
      </trkpt>
      <trkpt lat="44.39887" lon="6.47131">
        <ele>964.571</ele>
        <time>2019-10-11T11:30:52.001Z</time>
      </trkpt>
      <trkpt lat="44.39845" lon="6.47224">
        <ele>969.631</ele>
        <time>2019-10-11T11:31:22.001Z</time>
      </trkpt>
      <trkpt lat="44.39802" lon="6.47329">
        <ele>970.461</ele>
        <time>2019-10-11T11:31:52.001Z</time>
      </trkpt>
      <trkpt lat="44.39741" lon="6.47435">
        <ele>970.481</ele>
        <time>2019-10-11T11:32:22.001Z</time>
      </trkpt>
      <trkpt lat="44.39673" lon="6.47607">
        <ele>970.05</ele>
        <time>2019-10-11T11:32:55.001Z</time>
      </trkpt>
      <trkpt lat="44.39694" lon="6.47924">
        <ele>966.211</ele>
        <time>2019-10-11T11:33:25.001Z</time>
      </trkpt>
      <trkpt lat="44.39701" lon="6.48285">
        <ele>962.636</ele>
        <time>2019-10-11T11:33:55.001Z</time>
      </trkpt>
      <trkpt lat="44.39671" lon="6.48511">
        <ele>961.379</ele>
        <time>2019-10-11T11:34:25.001Z</time>
      </trkpt>
      <trkpt lat="44.39736" lon="6.4866">
        <ele>958.709</ele>
        <time>2019-10-11T11:34:55.001Z</time>
      </trkpt>
      <trkpt lat="44.39795" lon="6.48747">
        <ele>964.013</ele>
        <time>2019-10-11T11:35:25.001Z</time>
      </trkpt>
      <trkpt lat="44.39818" lon="6.48844">
        <ele>973.002</ele>
        <time>2019-10-11T11:35:55.001Z</time>
      </trkpt>
      <trkpt lat="44.39827" lon="6.48939">
        <ele>978.163</ele>
        <time>2019-10-11T11:36:25.001Z</time>
      </trkpt>
      <trkpt lat="44.39837" lon="6.49038">
        <ele>984.406</ele>
        <time>2019-10-11T11:36:55.001Z</time>
      </trkpt>
      <trkpt lat="44.3985" lon="6.49147">
        <ele>987.41</ele>
        <time>2019-10-11T11:37:25.001Z</time>
      </trkpt>
      <trkpt lat="44.3986" lon="6.4926">
        <ele>989.847</ele>
        <time>2019-10-11T11:37:55.001Z</time>
      </trkpt>
      <trkpt lat="44.39866" lon="6.49368">
        <ele>991.705</ele>
        <time>2019-10-11T11:38:25.001Z</time>
      </trkpt>
      <trkpt lat="44.39923" lon="6.49447">
        <ele>990.418</ele>
        <time>2019-10-11T11:38:58.001Z</time>
      </trkpt>
      <trkpt lat="44.39984" lon="6.49493">
        <ele>998.372</ele>
        <time>2019-10-11T11:39:28.001Z</time>
      </trkpt>
      <trkpt lat="44.4003" lon="6.49581">
        <ele>1001.824</ele>
        <time>2019-10-11T11:39:58.001Z</time>
      </trkpt>
      <trkpt lat="44.40052" lon="6.49681">
        <ele>1005.63</ele>
        <time>2019-10-11T11:40:28.001Z</time>
      </trkpt>
      <trkpt lat="44.40058" lon="6.49788">
        <ele>1003.953</ele>
        <time>2019-10-11T11:40:58.001Z</time>
      </trkpt>
      <trkpt lat="44.40054" lon="6.49895">
        <ele>1012.909</ele>
        <time>2019-10-11T11:41:28.001Z</time>
      </trkpt>
      <trkpt lat="44.40072" lon="6.49998">
        <ele>1017.199</ele>
        <time>2019-10-11T11:41:58.001Z</time>
      </trkpt>
      <trkpt lat="44.40069" lon="6.5011">
        <ele>1023.304</ele>
        <time>2019-10-11T11:42:28.001Z</time>
      </trkpt>
      <trkpt lat="44.40054" lon="6.50212">
        <ele>1023.118</ele>
        <time>2019-10-11T11:42:58.001Z</time>
      </trkpt>
      <trkpt lat="44.4001" lon="6.50291">
        <ele>1023.299</ele>
        <time>2019-10-11T11:43:28.001Z</time>
      </trkpt>
      <trkpt lat="44.39976" lon="6.50382">
        <ele>1022.05</ele>
        <time>2019-10-11T11:43:58.001Z</time>
      </trkpt>
      <trkpt lat="44.40011" lon="6.50476">
        <ele>1023.122</ele>
        <time>2019-10-11T11:44:31.001Z</time>
      </trkpt>
      <trkpt lat="44.40078" lon="6.50526">
        <ele>1025.913</ele>
        <time>2019-10-11T11:45:01.001Z</time>
      </trkpt>
      <trkpt lat="44.40124" lon="6.50614">
        <ele>1030.024</ele>
        <time>2019-10-11T11:45:31.001Z</time>
      </trkpt>
      <trkpt lat="44.40143" lon="6.50722">
        <ele>1035.81</ele>
        <time>2019-10-11T11:46:01.001Z</time>
      </trkpt>
      <trkpt lat="44.40165" lon="6.50832">
        <ele>1034.987</ele>
        <time>2019-10-11T11:46:31.001Z</time>
      </trkpt>
      <trkpt lat="44.40152" lon="6.50943">
        <ele>1042.404</ele>
        <time>2019-10-11T11:47:01.001Z</time>
      </trkpt>
      <trkpt lat="44.40159" lon="6.51066">
        <ele>1048.102</ele>
        <time>2019-10-11T11:47:31.001Z</time>
      </trkpt>
      <trkpt lat="44.40145" lon="6.51233">
        <ele>1041.941</ele>
        <time>2019-10-11T11:48:01.001Z</time>
      </trkpt>
      <trkpt lat="44.40103" lon="6.51391">
        <ele>1041.587</ele>
        <time>2019-10-11T11:48:31.001Z</time>
      </trkpt>
      <trkpt lat="44.40099" lon="6.51535">
        <ele>1042.411</ele>
        <time>2019-10-11T11:49:01.001Z</time>
      </trkpt>
      <trkpt lat="44.40064" lon="6.51673">
        <ele>1043.269</ele>
        <time>2019-10-11T11:49:31.001Z</time>
      </trkpt>
      <trkpt lat="44.40079" lon="6.51834">
        <ele>1049.158</ele>
        <time>2019-10-11T11:50:04.001Z</time>
      </trkpt>
      <trkpt lat="44.40066" lon="6.51976">
        <ele>1045.553</ele>
        <time>2019-10-11T11:50:34.001Z</time>
      </trkpt>
      <trkpt lat="44.40048" lon="6.52119">
        <ele>1040.993</ele>
        <time>2019-10-11T11:51:04.001Z</time>
      </trkpt>
      <trkpt lat="44.40057" lon="6.52261">
        <ele>1045.735</ele>
        <time>2019-10-11T11:51:34.001Z</time>
      </trkpt>
      <trkpt lat="44.40091" lon="6.52393">
        <ele>1050.113</ele>
        <time>2019-10-11T11:52:04.001Z</time>
      </trkpt>
      <trkpt lat="44.40116" lon="6.52518">
        <ele>1056.175</ele>
        <time>2019-10-11T11:52:34.001Z</time>
      </trkpt>
      <trkpt lat="44.40138" lon="6.52635">
        <ele>1057.283</ele>
        <time>2019-10-11T11:53:04.001Z</time>
      </trkpt>
      <trkpt lat="44.40133" lon="6.52746">
        <ele>1057.832</ele>
        <time>2019-10-11T11:53:34.001Z</time>
      </trkpt>
      <trkpt lat="44.40094" lon="6.52846">
        <ele>1067.022</ele>
        <time>2019-10-11T11:54:04.001Z</time>
      </trkpt>
      <trkpt lat="44.40039" lon="6.52941">
        <ele>1074.114</ele>
        <time>2019-10-11T11:54:34.001Z</time>
      </trkpt>
      <trkpt lat="44.39976" lon="6.53031">
        <ele>1075.277</ele>
        <time>2019-10-11T11:55:04.001Z</time>
      </trkpt>
      <trkpt lat="44.39955" lon="6.53213">
        <ele>1073.603</ele>
        <time>2019-10-11T11:55:34.001Z</time>
      </trkpt>
      <trkpt lat="44.39874" lon="6.53447">
        <ele>1069.753</ele>
        <time>2019-10-11T11:56:07.001Z</time>
      </trkpt>
      <trkpt lat="44.39937" lon="6.53698">
        <ele>1064.402</ele>
        <time>2019-10-11T11:56:37.001Z</time>
      </trkpt>
      <trkpt lat="44.39974" lon="6.53881">
        <ele>1062.813</ele>
        <time>2019-10-11T11:57:07.001Z</time>
      </trkpt>
      <trkpt lat="44.39973" lon="6.5405">
        <ele>1061.494</ele>
        <time>2019-10-11T11:57:37.001Z</time>
      </trkpt>
      <trkpt lat="44.39956" lon="6.54215">
        <ele>1065.408</ele>
        <time>2019-10-11T11:58:07.001Z</time>
      </trkpt>
      <trkpt lat="44.39898" lon="6.54321">
        <ele>1069.605</ele>
        <time>2019-10-11T11:58:37.001Z</time>
      </trkpt>
      <trkpt lat="44.3985" lon="6.54438">
        <ele>1067.763</ele>
        <time>2019-10-11T11:59:07.001Z</time>
      </trkpt>
      <trkpt lat="44.39778" lon="6.5451">
        <ele>1070.985</ele>
        <time>2019-10-11T11:59:37.001Z</time>
      </trkpt>
      <trkpt lat="44.39699" lon="6.54568">
        <ele>1075.301</ele>
        <time>2019-10-11T12:00:07.001Z</time>
      </trkpt>
      <trkpt lat="44.39651" lon="6.54675">
        <ele>1075.733</ele>
        <time>2019-10-11T12:00:37.001Z</time>
      </trkpt>
      <trkpt lat="44.39591" lon="6.54796">
        <ele>1078.028</ele>
        <time>2019-10-11T12:01:07.001Z</time>
      </trkpt>
      <trkpt lat="44.39495" lon="6.54926">
        <ele>1079.318</ele>
        <time>2019-10-11T12:01:40.001Z</time>
      </trkpt>
      <trkpt lat="44.39423" lon="6.55068">
        <ele>1081.4</ele>
        <time>2019-10-11T12:02:10.001Z</time>
      </trkpt>
      <trkpt lat="44.39376" lon="6.55243">
        <ele>1080.282</ele>
        <time>2019-10-11T12:02:40.001Z</time>
      </trkpt>
      <trkpt lat="44.39343" lon="6.55444">
        <ele>1078.991</ele>
        <time>2019-10-11T12:03:10.001Z</time>
      </trkpt>
      <trkpt lat="44.39309" lon="6.55583">
        <ele>1080.094</ele>
        <time>2019-10-11T12:03:40.001Z</time>
      </trkpt>
      <trkpt lat="44.39323" lon="6.55723">
        <ele>1081.647</ele>
        <time>2019-10-11T12:04:10.001Z</time>
      </trkpt>
      <trkpt lat="44.39353" lon="6.55854">
        <ele>1084.194</ele>
        <time>2019-10-11T12:04:40.001Z</time>
      </trkpt>
      <trkpt lat="44.39341" lon="6.55971">
        <ele>1093.372</ele>
        <time>2019-10-11T12:05:10.001Z</time>
      </trkpt>
      <trkpt lat="44.39317" lon="6.56078">
        <ele>1095.859</ele>
        <time>2019-10-11T12:05:40.001Z</time>
      </trkpt>
      <trkpt lat="44.39294" lon="6.56189">
        <ele>1096.32</ele>
        <time>2019-10-11T12:06:10.001Z</time>
      </trkpt>
      <trkpt lat="44.39268" lon="6.56298">
        <ele>1100.944</ele>
        <time>2019-10-11T12:06:40.001Z</time>
      </trkpt>
      <trkpt lat="44.39249" lon="6.56415">
        <ele>1104.079</ele>
        <time>2019-10-11T12:07:13.001Z</time>
      </trkpt>
      <trkpt lat="44.39243" lon="6.56519">
        <ele>1108.166</ele>
        <time>2019-10-11T12:07:43.001Z</time>
      </trkpt>
      <trkpt lat="44.39257" lon="6.56628">
        <ele>1112.857</ele>
        <time>2019-10-11T12:08:13.001Z</time>
      </trkpt>
      <trkpt lat="44.39281" lon="6.56771">
        <ele>1113.031</ele>
        <time>2019-10-11T12:08:43.001Z</time>
      </trkpt>
      <trkpt lat="44.3931" lon="6.56948">
        <ele>1112.842</ele>
        <time>2019-10-11T12:09:13.001Z</time>
      </trkpt>
      <trkpt lat="44.39353" lon="6.57219">
        <ele>1109.992</ele>
        <time>2019-10-11T12:09:43.001Z</time>
      </trkpt>
      <trkpt lat="44.39295" lon="6.57552">
        <ele>1095.472</ele>
        <time>2019-10-11T12:10:13.001Z</time>
      </trkpt>
      <trkpt lat="44.39203" lon="6.57751">
        <ele>1101.777</ele>
        <time>2019-10-11T12:10:43.001Z</time>
      </trkpt>
      <trkpt lat="44.39146" lon="6.57867">
        <ele>1099.789</ele>
        <time>2019-10-11T12:11:13.001Z</time>
      </trkpt>
      <trkpt lat="44.39092" lon="6.57966">
        <ele>1099.683</ele>
        <time>2019-10-11T12:11:43.001Z</time>
      </trkpt>
      <trkpt lat="44.3904" lon="6.58061">
        <ele>1109.185</ele>
        <time>2019-10-11T12:12:13.001Z</time>
      </trkpt>
      <trkpt lat="44.38998" lon="6.5818">
        <ele>1106.422</ele>
        <time>2019-10-11T12:12:43.001Z</time>
      </trkpt>
      <trkpt lat="44.38986" lon="6.5838">
        <ele>1104.832</ele>
        <time>2019-10-11T12:13:16Z</time>
      </trkpt>
      <trkpt lat="44.39012" lon="6.58605">
        <ele>1102.054</ele>
        <time>2019-10-11T12:13:46.001Z</time>
      </trkpt>
      <trkpt lat="44.39076" lon="6.58922">
        <ele>1097.317</ele>
        <time>2019-10-11T12:14:16Z</time>
      </trkpt>
      <trkpt lat="44.39012" lon="6.59156">
        <ele>1103.464</ele>
        <time>2019-10-11T12:14:46.001Z</time>
      </trkpt>
      <trkpt lat="44.3896" lon="6.59287">
        <ele>1109.526</ele>
        <time>2019-10-11T12:15:16Z</time>
      </trkpt>
      <trkpt lat="44.38914" lon="6.59401">
        <ele>1115.875</ele>
        <time>2019-10-11T12:15:46.001Z</time>
      </trkpt>
      <trkpt lat="44.38868" lon="6.59517">
        <ele>1118.075</ele>
        <time>2019-10-11T12:16:16Z</time>
      </trkpt>
      <trkpt lat="44.38822" lon="6.59645">
        <ele>1116.723</ele>
        <time>2019-10-11T12:16:46.001Z</time>
      </trkpt>
      <trkpt lat="44.38783" lon="6.59778">
        <ele>1119.252</ele>
        <time>2019-10-11T12:17:16Z</time>
      </trkpt>
      <trkpt lat="44.38743" lon="6.59924">
        <ele>1117.492</ele>
        <time>2019-10-11T12:17:46.001Z</time>
      </trkpt>
      <trkpt lat="44.387" lon="6.60061">
        <ele>1118.743</ele>
        <time>2019-10-11T12:18:16Z</time>
      </trkpt>
      <trkpt lat="44.38655" lon="6.60221">
        <ele>1116.331</ele>
        <time>2019-10-11T12:18:49.001Z</time>
      </trkpt>
      <trkpt lat="44.3861" lon="6.60365">
        <ele>1120.659</ele>
        <time>2019-10-11T12:19:19.001Z</time>
      </trkpt>
      <trkpt lat="44.38568" lon="6.60528">
        <ele>1126.291</ele>
        <time>2019-10-11T12:19:49.001Z</time>
      </trkpt>
      <trkpt lat="44.38539" lon="6.60706">
        <ele>1120.924</ele>
        <time>2019-10-11T12:20:19.001Z</time>
      </trkpt>
      <trkpt lat="44.38532" lon="6.60897">
        <ele>1118.874</ele>
        <time>2019-10-11T12:20:49.001Z</time>
      </trkpt>
      <trkpt lat="44.38541" lon="6.61083">
        <ele>1117.872</ele>
        <time>2019-10-11T12:21:19.001Z</time>
      </trkpt>
      <trkpt lat="44.38571" lon="6.61278">
        <ele>1117.828</ele>
        <time>2019-10-11T12:21:49.001Z</time>
      </trkpt>
      <trkpt lat="44.38625" lon="6.61524">
        <ele>1118.392</ele>
        <time>2019-10-11T12:22:19.001Z</time>
      </trkpt>
      <trkpt lat="44.38626" lon="6.61772">
        <ele>1113.985</ele>
        <time>2019-10-11T12:22:49.001Z</time>
      </trkpt>
      <trkpt lat="44.38626" lon="6.61981">
        <ele>1116.414</ele>
        <time>2019-10-11T12:23:19.001Z</time>
      </trkpt>
      <trkpt lat="44.38626" lon="6.62187">
        <ele>1115.414</ele>
        <time>2019-10-11T12:23:49.001Z</time>
      </trkpt>
      <trkpt lat="44.38623" lon="6.62415">
        <ele>1119.018</ele>
        <time>2019-10-11T12:24:22.001Z</time>
      </trkpt>
      <trkpt lat="44.3862" lon="6.62609">
        <ele>1121.049</ele>
        <time>2019-10-11T12:24:52.001Z</time>
      </trkpt>
      <trkpt lat="44.38623" lon="6.62805">
        <ele>1122.725</ele>
        <time>2019-10-11T12:25:22.001Z</time>
      </trkpt>
      <trkpt lat="44.38626" lon="6.62999">
        <ele>1125.899</ele>
        <time>2019-10-11T12:25:52.001Z</time>
      </trkpt>
      <trkpt lat="44.3862" lon="6.63184">
        <ele>1126.645</ele>
        <time>2019-10-11T12:26:22.001Z</time>
      </trkpt>
      <trkpt lat="44.38626" lon="6.63392">
        <ele>1126.303</ele>
        <time>2019-10-11T12:26:52.001Z</time>
      </trkpt>
      <trkpt lat="44.38625" lon="6.63588">
        <ele>1123.19</ele>
        <time>2019-10-11T12:27:22.001Z</time>
      </trkpt>
      <trkpt lat="44.38622" lon="6.63777">
        <ele>1126.611</ele>
        <time>2019-10-11T12:27:52.001Z</time>
      </trkpt>
      <trkpt lat="44.38627" lon="6.63979">
        <ele>1126.369</ele>
        <time>2019-10-11T12:28:22.001Z</time>
      </trkpt>
      <trkpt lat="44.38626" lon="6.64178">
        <ele>1127.267</ele>
        <time>2019-10-11T12:28:52.001Z</time>
      </trkpt>
      <trkpt lat="44.38595" lon="6.64373">
        <ele>1130.275</ele>
        <time>2019-10-11T12:29:22.001Z</time>
      </trkpt>
      <trkpt lat="44.38556" lon="6.64588">
        <ele>1132.325</ele>
        <time>2019-10-11T12:29:55.001Z</time>
      </trkpt>
      <trkpt lat="44.38514" lon="6.64772">
        <ele>1133.887</ele>
        <time>2019-10-11T12:30:25.001Z</time>
      </trkpt>
      <trkpt lat="44.38506" lon="6.64893">
        <ele>1133.397</ele>
        <time>2019-10-11T12:30:55.001Z</time>
      </trkpt>
      <trkpt lat="44.38582" lon="6.65072">
        <ele>1132.568</ele>
        <time>2019-10-11T12:31:25.001Z</time>
      </trkpt>
      <trkpt lat="44.38522" lon="6.65134">
        <ele>1132.092</ele>
        <time>2019-10-11T12:31:55.001Z</time>
      </trkpt>
      <trkpt lat="44.38522" lon="6.65195">
        <ele>1135.204</ele>
        <time>2019-10-11T12:55:19.001Z</time>
      </trkpt>
      <trkpt lat="44.38487" lon="6.65234">
        <ele>1137.543</ele>
        <time>2019-10-11T12:56:04.001Z</time>
      </trkpt>
      <trkpt lat="44.38513" lon="6.65373">
        <ele>1140.358</ele>
        <time>2019-10-11T12:56:34.001Z</time>
      </trkpt>
      <trkpt lat="44.38516" lon="6.65457">
        <ele>1136.149</ele>
        <time>2019-10-11T12:57:10.001Z</time>
      </trkpt>
      <trkpt lat="44.38522" lon="6.65598">
        <ele>1140.375</ele>
        <time>2019-10-11T12:57:40.001Z</time>
      </trkpt>
      <trkpt lat="44.38519" lon="6.65743">
        <ele>1142.942</ele>
        <time>2019-10-11T12:58:10.001Z</time>
      </trkpt>
      <trkpt lat="44.38615" lon="6.65757">
        <ele>1141.843</ele>
        <time>2019-10-11T12:58:40.001Z</time>
      </trkpt>
      <trkpt lat="44.38749" lon="6.65728">
        <ele>1140.918</ele>
        <time>2019-10-11T12:59:13.001Z</time>
      </trkpt>
      <trkpt lat="44.388" lon="6.65843">
        <ele>1139.708</ele>
        <time>2019-10-11T12:59:43.001Z</time>
      </trkpt>
      <trkpt lat="44.3882" lon="6.66008">
        <ele>1142.254</ele>
        <time>2019-10-11T13:00:13.001Z</time>
      </trkpt>
      <trkpt lat="44.38837" lon="6.6618">
        <ele>1140.634</ele>
        <time>2019-10-11T13:00:43.001Z</time>
      </trkpt>
      <trkpt lat="44.3888" lon="6.66342">
        <ele>1143.284</ele>
        <time>2019-10-11T13:01:13.001Z</time>
      </trkpt>
      <trkpt lat="44.38946" lon="6.66481">
        <ele>1152.23</ele>
        <time>2019-10-11T13:01:43.001Z</time>
      </trkpt>
      <trkpt lat="44.39005" lon="6.66623">
        <ele>1144.448</ele>
        <time>2019-10-11T13:02:13.001Z</time>
      </trkpt>
      <trkpt lat="44.38995" lon="6.66781">
        <ele>1145.354</ele>
        <time>2019-10-11T13:02:43.001Z</time>
      </trkpt>
      <trkpt lat="44.39026" lon="6.66931">
        <ele>1147.847</ele>
        <time>2019-10-11T13:03:13.001Z</time>
      </trkpt>
      <trkpt lat="44.39111" lon="6.67055">
        <ele>1149.088</ele>
        <time>2019-10-11T13:03:43.001Z</time>
      </trkpt>
      <trkpt lat="44.39135" lon="6.67212">
        <ele>1151.537</ele>
        <time>2019-10-11T13:04:13.001Z</time>
      </trkpt>
      <trkpt lat="44.39136" lon="6.6739">
        <ele>1157.829</ele>
        <time>2019-10-11T13:04:46.001Z</time>
      </trkpt>
      <trkpt lat="44.39138" lon="6.67548">
        <ele>1161.046</ele>
        <time>2019-10-11T13:05:16Z</time>
      </trkpt>
      <trkpt lat="44.39146" lon="6.6771">
        <ele>1162.126</ele>
        <time>2019-10-11T13:05:46.001Z</time>
      </trkpt>
      <trkpt lat="44.3915" lon="6.67869">
        <ele>1160.471</ele>
        <time>2019-10-11T13:06:16Z</time>
      </trkpt>
      <trkpt lat="44.39152" lon="6.68036">
        <ele>1160.232</ele>
        <time>2019-10-11T13:06:46.001Z</time>
      </trkpt>
      <trkpt lat="44.39157" lon="6.68201">
        <ele>1164.004</ele>
        <time>2019-10-11T13:07:16Z</time>
      </trkpt>
      <trkpt lat="44.39176" lon="6.68372">
        <ele>1163.675</ele>
        <time>2019-10-11T13:07:46.001Z</time>
      </trkpt>
      <trkpt lat="44.39223" lon="6.68544">
        <ele>1166.367</ele>
        <time>2019-10-11T13:08:16Z</time>
      </trkpt>
      <trkpt lat="44.39287" lon="6.68701">
        <ele>1165.311</ele>
        <time>2019-10-11T13:08:46.001Z</time>
      </trkpt>
      <trkpt lat="44.39359" lon="6.6882">
        <ele>1165.498</ele>
        <time>2019-10-11T13:09:16Z</time>
      </trkpt>
      <trkpt lat="44.3945" lon="6.68962">
        <ele>1167.255</ele>
        <time>2019-10-11T13:09:46.001Z</time>
      </trkpt>
      <trkpt lat="44.39568" lon="6.69102">
        <ele>1169.301</ele>
        <time>2019-10-11T13:10:19.001Z</time>
      </trkpt>
      <trkpt lat="44.39674" lon="6.69195">
        <ele>1179.269</ele>
        <time>2019-10-11T13:10:49.001Z</time>
      </trkpt>
      <trkpt lat="44.39786" lon="6.69288">
        <ele>1175.99</ele>
        <time>2019-10-11T13:11:19.001Z</time>
      </trkpt>
      <trkpt lat="44.39909" lon="6.69391">
        <ele>1173.427</ele>
        <time>2019-10-11T13:11:49.001Z</time>
      </trkpt>
      <trkpt lat="44.39986" lon="6.69532">
        <ele>1174.482</ele>
        <time>2019-10-11T13:12:19.001Z</time>
      </trkpt>
      <trkpt lat="44.40041" lon="6.69692">
        <ele>1176.944</ele>
        <time>2019-10-11T13:12:49.001Z</time>
      </trkpt>
      <trkpt lat="44.40096" lon="6.69847">
        <ele>1177.231</ele>
        <time>2019-10-11T13:13:19.001Z</time>
      </trkpt>
      <trkpt lat="44.40152" lon="6.7001">
        <ele>1180.415</ele>
        <time>2019-10-11T13:13:49.001Z</time>
      </trkpt>
      <trkpt lat="44.40232" lon="6.70151">
        <ele>1181.322</ele>
        <time>2019-10-11T13:14:19.001Z</time>
      </trkpt>
      <trkpt lat="44.4039" lon="6.7024">
        <ele>1180.353</ele>
        <time>2019-10-11T13:14:49.001Z</time>
      </trkpt>
      <trkpt lat="44.40456" lon="6.70479">
        <ele>1174.602</ele>
        <time>2019-10-11T13:15:19.001Z</time>
      </trkpt>
      <trkpt lat="44.4048" lon="6.70579">
        <ele>1177.224</ele>
        <time>2019-10-11T13:16:01.001Z</time>
      </trkpt>
      <trkpt lat="44.40484" lon="6.70796">
        <ele>1179.357</ele>
        <time>2019-10-11T13:16:34.001Z</time>
      </trkpt>
      <trkpt lat="44.40482" lon="6.70971">
        <ele>1182.878</ele>
        <time>2019-10-11T13:17:04.001Z</time>
      </trkpt>
      <trkpt lat="44.40483" lon="6.71128">
        <ele>1185.677</ele>
        <time>2019-10-11T13:17:34.001Z</time>
      </trkpt>
      <trkpt lat="44.40502" lon="6.71279">
        <ele>1190.741</ele>
        <time>2019-10-11T13:18:04.001Z</time>
      </trkpt>
      <trkpt lat="44.40527" lon="6.71426">
        <ele>1192.442</ele>
        <time>2019-10-11T13:18:34.001Z</time>
      </trkpt>
      <trkpt lat="44.40548" lon="6.71574">
        <ele>1197.765</ele>
        <time>2019-10-11T13:19:04.001Z</time>
      </trkpt>
      <trkpt lat="44.40573" lon="6.71724">
        <ele>1199.104</ele>
        <time>2019-10-11T13:19:34.001Z</time>
      </trkpt>
      <trkpt lat="44.406" lon="6.7186">
        <ele>1205.341</ele>
        <time>2019-10-11T13:20:04.001Z</time>
      </trkpt>
      <trkpt lat="44.40644" lon="6.72">
        <ele>1203.08</ele>
        <time>2019-10-11T13:20:34.001Z</time>
      </trkpt>
      <trkpt lat="44.40686" lon="6.72148">
        <ele>1205.308</ele>
        <time>2019-10-11T13:21:04.001Z</time>
      </trkpt>
      <trkpt lat="44.40752" lon="6.72308">
        <ele>1205.493</ele>
        <time>2019-10-11T13:21:34.001Z</time>
      </trkpt>
      <trkpt lat="44.40838" lon="6.72488">
        <ele>1207.036</ele>
        <time>2019-10-11T13:22:07.001Z</time>
      </trkpt>
      <trkpt lat="44.40919" lon="6.7265">
        <ele>1204.673</ele>
        <time>2019-10-11T13:22:37.001Z</time>
      </trkpt>
      <trkpt lat="44.41015" lon="6.72786">
        <ele>1207.96</ele>
        <time>2019-10-11T13:23:07.001Z</time>
      </trkpt>
      <trkpt lat="44.41174" lon="6.72884">
        <ele>1209.93</ele>
        <time>2019-10-11T13:23:37.001Z</time>
      </trkpt>
      <trkpt lat="44.4134" lon="6.72896">
        <ele>1206.105</ele>
        <time>2019-10-11T13:24:07.001Z</time>
      </trkpt>
      <trkpt lat="44.41357" lon="6.72857">
        <ele>1212.609</ele>
        <time>2019-10-11T13:26:07.001Z</time>
      </trkpt>
      <trkpt lat="44.41363" lon="6.72849">
        <ele>1212.118</ele>
        <time>2019-10-11T13:48:01.001Z</time>
      </trkpt>
      <trkpt lat="44.41376" lon="6.72871">
        <ele>1211.24</ele>
        <time>2019-10-11T13:52:25.001Z</time>
      </trkpt>
      <trkpt lat="44.41367" lon="6.72854">
        <ele>1214.105</ele>
        <time>2019-10-11T13:57:22.001Z</time>
      </trkpt>
      <trkpt lat="44.41367" lon="6.7285">
        <ele>1213.555</ele>
        <time>2019-10-11T14:00:43.001Z</time>
      </trkpt>
      <trkpt lat="44.41363" lon="6.72872">
        <ele>1212.184</ele>
        <time>2019-10-11T14:02:01.001Z</time>
      </trkpt>
      <trkpt lat="44.41369" lon="6.7288">
        <ele>1211.085</ele>
        <time>2019-10-11T14:04:16Z</time>
      </trkpt>
      <trkpt lat="44.41368" lon="6.72881">
        <ele>1211.325</ele>
        <time>2019-10-11T14:05:07.001Z</time>
      </trkpt>
      <trkpt lat="44.41369" lon="6.72877">
        <ele>1211.084</ele>
        <time>2019-10-11T14:06:19.001Z</time>
      </trkpt>
      <trkpt lat="44.41363" lon="6.72858">
        <ele>1211.36</ele>
        <time>2019-10-11T14:13:30.001Z</time>
      </trkpt>
      <trkpt lat="44.41374" lon="6.72853">
        <ele>1212.2</ele>
        <time>2019-10-11T14:21:18.001Z</time>
      </trkpt>
      <trkpt lat="44.4136" lon="6.72864">
        <ele>1224.991</ele>
        <time>2019-10-11T14:22:06.001Z</time>
      </trkpt>
    </trkseg>
  </trk>
</gpx>